Time;durP1;ratioP1;P1;durP2;ratioP2;P2;SDS_P1;SDS_P2;PMS_P1;PMS_P2;Temp;Humidity;BMP_temperature;BMP_pressure;BME280_temperature;BME280_humidity;BME280_pressure;Samples;Min_cycle;Max_cycle;Signal;HPM_P1;HPM_P2
2023/09/29 00:00:17;;;;;;;;;;;17.00;99.90;;;;;;5016151;28;20758;-73
2023/09/29 00:02:44;;;;;;;;;;;16.90;99.90;;;;;;5016678;28;19917;-72
2023/09/29 00:05:10;;;;;;;;;;;16.90;99.90;;;;;;4993405;28;19913;-73
2023/09/29 00:07:37;;;;;;;;;;;16.90;99.90;;;;;;5018088;28;19920;-73
2023/09/29 00:10:08;;;;;;;;;;;16.80;99.90;;;;;;5012813;28;19963;-73
2023/09/29 00:12:34;;;;;;;;;;;16.80;99.90;;;;;;5010830;28;19924;-73
2023/09/29 00:15:00;;;;;;;;;;;16.70;99.90;;;;;;5014061;28;19920;-73
2023/09/29 00:17:26;;;;;;;;;;;16.70;99.90;;;;;;5013137;28;19913;-73
2023/09/29 00:19:52;;;;;;;;;;;16.70;99.90;;;;;;5016701;28;20058;-73
2023/09/29 00:22:18;;;;;;;;;;;16.60;99.90;;;;;;5011032;28;19959;-73
2023/09/29 00:24:43;;;;;;;;;;;16.60;99.90;;;;;;5016384;28;19909;-73
2023/09/29 00:27:09;;;;;;;;;;;16.50;99.90;;;;;;5007757;28;19996;-73
2023/09/29 00:29:34;;;;;;;;;;;16.50;99.90;;;;;;5013049;28;19959;-73
2023/09/29 00:32:00;;;;;;;;;;;16.50;99.90;;;;;;5010880;28;19953;-72
2023/09/29 00:34:26;;;;;;;;;;;16.50;99.90;;;;;;5014286;28;19936;-73
2023/09/29 00:36:51;;;;;;;;;;;16.40;99.90;;;;;;5015881;28;20191;-73
2023/09/29 00:39:18;;;;;;;;;;;16.40;99.90;;;;;;5013583;28;20556;-72
2023/09/29 00:41:44;;;;;;;;;;;16.40;99.90;;;;;;5013916;28;19921;-72
2023/09/29 00:44:10;;;;;;;;;;;16.30;99.90;;;;;;4995703;28;19925;-73
2023/09/29 00:46:36;;;;;;;;;;;16.30;99.90;;;;;;4997703;28;20006;-73
2023/09/29 00:49:04;;;;;;;;;;;16.30;99.90;;;;;;5012116;28;20701;-72
2023/09/29 00:51:30;;;;;;;;;;;16.30;99.90;;;;;;4998444;28;19955;-72
2023/09/29 00:53:57;;;;;;;;;;;16.20;99.90;;;;;;4995820;28;20277;-72
2023/09/29 00:56:23;;;;;;;;;;;16.20;99.90;;;;;;5017034;28;19920;-73
2023/09/29 00:58:49;;;;;;;;;;;16.20;99.90;;;;;;5017378;28;19913;-73
2023/09/29 01:01:14;;;;;;;;;;;16.20;99.90;;;;;;5009587;28;20435;-73
2023/09/29 01:03:40;;;;;;;;;;;16.20;99.90;;;;;;5016138;28;19917;-72
2023/09/29 01:06:09;;;;;;;;;;;16.20;99.90;;;;;;5017962;28;19921;-72
2023/09/29 01:08:36;;;;;;;;;;;16.10;99.90;;;;;;5012214;28;19909;-73
2023/09/29 01:11:05;;;;;;;;;;;16.10;99.90;;;;;;4995474;28;19919;-72
2023/09/29 01:13:31;;;;;;;;;;;16.00;99.90;;;;;;4996666;28;19940;-72
2023/09/29 01:15:57;;;;;;;;;;;16.00;99.90;;;;;;5006074;28;19913;-73
2023/09/29 01:18:23;;;;;;;;;;;16.00;99.90;;;;;;5019387;28;20411;-72
2023/09/29 01:20:49;;;;;;;;;;;16.10;99.90;;;;;;5011409;28;19975;-72
2023/09/29 01:23:15;;;;;;;;;;;16.10;99.90;;;;;;5016145;28;20383;-72
2023/09/29 01:25:41;;;;;;;;;;;16.10;99.90;;;;;;5020625;28;19924;-73
2023/09/29 01:28:13;;;;;;;;;;;16.10;99.90;;;;;;5013975;28;19916;-72
2023/09/29 01:30:41;;;;;;;;;;;16.10;99.90;;;;;;5018123;28;19917;-72
2023/09/29 01:33:07;;;;;;;;;;;16.00;99.90;;;;;;5016810;28;19960;-73
2023/09/29 01:35:33;;;;;;;;;;;16.00;99.90;;;;;;5014665;28;19963;-72
2023/09/29 01:38:01;;;;;;;;;;;15.90;99.90;;;;;;5020081;28;20329;-72
2023/09/29 01:40:27;;;;;;;;;;;15.90;99.90;;;;;;5004153;28;19909;-72
2023/09/29 01:42:56;;;;;;;;;;;16.00;99.90;;;;;;5012005;28;19920;-72
2023/09/29 01:45:23;;;;;;;;;;;15.90;99.90;;;;;;4997943;28;20587;-72
2023/09/29 01:47:48;;;;;;;;;;;16.20;99.90;;;;;;5013607;28;20544;-73
2023/09/29 01:50:16;;;;;;;;;;;16.20;99.90;;;;;;5010717;28;20019;-72
2023/09/29 01:52:42;;;;;;;;;;;16.20;99.90;;;;;;5016527;28;19917;-72
2023/09/29 01:55:16;;;;;;;;;;;16.20;99.90;;;;;;5020378;28;19909;-72
2023/09/29 01:57:42;;;;;;;;;;;16.20;99.90;;;;;;5000047;28;19909;-71
2023/09/29 02:03:07;;;;;;;;;;;16.10;99.90;;;;;;4955807;28;20553;-72
2023/09/29 02:05:33;;;;;;;;;;;16.10;99.90;;;;;;5011830;28;20324;-72
2023/09/29 02:07:58;;;;;;;;;;;16.00;99.90;;;;;;5017808;28;19909;-72
2023/09/29 02:10:26;;;;;;;;;;;16.00;99.90;;;;;;5015365;28;20387;-72
2023/09/29 02:12:56;;;;;;;;;;;15.90;99.90;;;;;;4998755;28;19944;-72
2023/09/29 02:15:22;;;;;;;;;;;15.90;99.90;;;;;;5012563;28;19909;-72
2023/09/29 02:17:48;;;;;;;;;;;15.80;99.90;;;;;;5017566;28;19924;-72
2023/09/29 02:20:17;;;;;;;;;;;15.80;99.90;;;;;;5016570;28;19978;-72
2023/09/29 02:22:43;;;;;;;;;;;15.70;99.90;;;;;;5015357;28;20024;-72
2023/09/29 02:25:14;;;;;;;;;;;15.70;99.90;;;;;;5017768;28;20023;-72
2023/09/29 02:27:40;;;;;;;;;;;15.70;99.90;;;;;;5015312;28;19976;-72
2023/09/29 02:30:08;;;;;;;;;;;15.60;99.90;;;;;;5013821;28;19923;-72
2023/09/29 02:32:35;;;;;;;;;;;15.60;99.90;;;;;;5016933;28;19916;-72
2023/09/29 02:35:01;;;;;;;;;;;15.60;99.90;;;;;;5015520;28;19913;-72
2023/09/29 02:37:27;;;;;;;;;;;15.60;99.90;;;;;;5014167;28;19909;-72
2023/09/29 02:39:52;;;;;;;;;;;15.60;99.90;;;;;;5015187;28;20363;-72
2023/09/29 02:42:18;;;;;;;;;;;15.50;99.90;;;;;;5001966;28;20311;-72
2023/09/29 02:44:43;;;;;;;;;;;15.50;99.90;;;;;;5017913;28;19971;-72
2023/09/29 02:47:10;;;;;;;;;;;15.50;99.90;;;;;;5010261;28;20666;-72
2023/09/29 02:49:35;;;;;;;;;;;15.40;99.90;;;;;;5013122;28;19975;-72
2023/09/29 02:52:04;;;;;;;;;;;15.40;99.90;;;;;;5008325;28;20399;-72
2023/09/29 02:54:30;;;;;;;;;;;15.30;99.90;;;;;;5010978;28;19935;-72
2023/09/29 02:56:56;;;;;;;;;;;15.30;99.90;;;;;;5019212;28;20545;-72
2023/09/29 02:59:23;;;;;;;;;;;15.30;99.90;;;;;;5010470;28;19921;-72
2023/09/29 03:01:49;;;;;;;;;;;15.30;99.90;;;;;;5019723;28;19924;-72
2023/09/29 03:04:15;;;;;;;;;;;15.20;99.90;;;;;;5021089;28;19913;-72
2023/09/29 03:06:41;;;;;;;;;;;15.20;99.90;;;;;;5001580;28;19916;-72
2023/09/29 03:09:10;;;;;;;;;;;15.20;99.90;;;;;;5016889;28;20008;-72
2023/09/29 03:11:43;;;;;;;;;;;15.20;99.90;;;;;;5016837;28;19914;-72
2023/09/29 03:14:09;;;;;;;;;;;15.20;99.90;;;;;;5013894;28;19917;-72
2023/09/29 03:16:35;;;;;;;;;;;15.10;99.90;;;;;;5015034;28;19935;-72
2023/09/29 03:19:04;;;;;;;;;;;15.10;99.90;;;;;;5018835;28;20361;-72
2023/09/29 03:21:29;;;;;;;;;;;15.00;99.90;;;;;;4999912;28;19955;-72
2023/09/29 03:23:56;;;;;;;;;;;15.00;99.90;;;;;;5014858;28;20411;-72
2023/09/29 03:26:25;;;;;;;;;;;15.00;99.90;;;;;;5018990;28;19976;-72
2023/09/29 03:28:50;;;;;;;;;;;15.00;99.90;;;;;;5013995;28;19916;-72
2023/09/29 03:31:18;;;;;;;;;;;15.00;99.90;;;;;;5014852;28;19917;-72
2023/09/29 03:33:43;;;;;;;;;;;15.00;99.90;;;;;;5014332;28;19921;-72
2023/09/29 03:36:09;;;;;;;;;;;15.00;99.90;;;;;;4993570;28;20269;-72
2023/09/29 03:38:37;;;;;;;;;;;15.00;99.90;;;;;;4998659;28;19959;-72
2023/09/29 03:41:06;;;;;;;;;;;15.00;99.90;;;;;;4993729;28;19936;-72
2023/09/29 03:43:31;;;;;;;;;;;14.90;99.90;;;;;;5013261;28;20358;-72
2023/09/29 03:45:57;;;;;;;;;;;14.90;99.90;;;;;;5015465;28;19909;-72
2023/09/29 03:48:25;;;;;;;;;;;14.90;99.90;;;;;;5011987;28;20012;-72
2023/09/29 03:50:53;;;;;;;;;;;14.90;99.90;;;;;;5012374;28;19920;-72
2023/09/29 03:53:19;;;;;;;;;;;14.90;99.90;;;;;;4998600;28;19921;-72
2023/09/29 03:55:45;;;;;;;;;;;14.90;99.90;;;;;;4999395;28;19970;-72
2023/09/29 03:58:10;;;;;;;;;;;14.90;99.90;;;;;;5013161;28;19983;-72
2023/09/29 04:00:36;;;;;;;;;;;14.80;99.90;;;;;;5008158;28;19960;-72
2023/09/29 04:03:02;;;;;;;;;;;14.80;99.90;;;;;;5003340;28;19959;-72
2023/09/29 04:05:27;;;;;;;;;;;14.80;99.90;;;;;;5015120;28;20399;-72
2023/09/29 04:07:53;;;;;;;;;;;14.60;99.90;;;;;;5011177;28;19921;-72
2023/09/29 04:10:20;;;;;;;;;;;14.60;99.90;;;;;;5002684;28;19918;-72
2023/09/29 04:12:46;;;;;;;;;;;14.50;99.90;;;;;;5014426;28;20028;-72
2023/09/29 04:15:12;;;;;;;;;;;14.50;99.90;;;;;;5013707;28;20000;-72
2023/09/29 04:17:38;;;;;;;;;;;14.50;99.90;;;;;;4992655;28;19917;-72
2023/09/29 04:20:05;;;;;;;;;;;14.50;99.90;;;;;;5015089;28;19997;-72
2023/09/29 04:22:31;;;;;;;;;;;14.50;99.90;;;;;;5006567;28;19960;-72
2023/09/29 04:24:58;;;;;;;;;;;14.50;99.90;;;;;;5012462;28;19979;-72
2023/09/29 04:27:24;;;;;;;;;;;14.50;99.90;;;;;;5013737;28;19920;-72
2023/09/29 04:29:50;;;;;;;;;;;14.50;99.90;;;;;;5019399;28;19917;-72
2023/09/29 04:32:16;;;;;;;;;;;14.50;99.90;;;;;;5007021;28;19925;-71
2023/09/29 04:34:41;;;;;;;;;;;14.50;99.90;;;;;;4994833;28;19913;-72
2023/09/29 04:37:07;;;;;;;;;;;14.50;99.90;;;;;;5001959;28;19909;-72
2023/09/29 04:39:34;;;;;;;;;;;14.50;99.90;;;;;;5013108;28;20008;-72
2023/09/29 04:42:00;;;;;;;;;;;14.50;99.90;;;;;;5019373;28;20361;-73
2023/09/29 04:44:25;;;;;;;;;;;14.60;99.90;;;;;;5000482;28;19924;-72
2023/09/29 04:46:51;;;;;;;;;;;14.50;99.90;;;;;;5001476;28;20320;-72
2023/09/29 04:49:16;;;;;;;;;;;14.50;99.90;;;;;;5019122;28;19918;-73
2023/09/29 04:51:43;;;;;;;;;;;14.50;99.90;;;;;;5014541;28;19956;-72
2023/09/29 04:54:10;;;;;;;;;;;14.50;99.90;;;;;;5013610;28;19918;-72
2023/09/29 04:56:35;;;;;;;;;;;14.50;99.90;;;;;;5018780;28;19913;-73
2023/09/29 04:59:01;;;;;;;;;;;14.50;99.90;;;;;;5001010;28;19910;-72
2023/09/29 05:01:27;;;;;;;;;;;14.50;99.90;;;;;;5001537;28;19913;-72
2023/09/29 05:03:52;;;;;;;;;;;14.60;99.90;;;;;;5012080;28;19913;-72
2023/09/29 05:06:18;;;;;;;;;;;14.70;99.90;;;;;;5004510;28;19920;-71
2023/09/29 05:08:44;;;;;;;;;;;14.80;99.90;;;;;;5014327;28;19913;-71
2023/09/29 05:11:23;;;;;;;;;;;15.00;99.90;;;;;;5016788;28;20694;-72
2023/09/29 05:13:49;;;;;;;;;;;15.40;99.90;;;;;;5000380;28;19921;-72
2023/09/29 05:16:15;;;;;;;;;;;15.70;99.90;;;;;;5020367;28;20356;-72
2023/09/29 05:18:41;;;;;;;;;;;16.10;99.90;;;;;;5016880;28;19913;-73
2023/09/29 05:21:07;;;;;;;;;;;16.40;99.90;;;;;;5017504;28;19936;-73
2023/09/29 05:23:32;;;;;;;;;;;16.80;99.90;;;;;;5016464;28;20003;-73
2023/09/29 05:26:02;;;;;;;;;;;17.20;99.90;;;;;;5022920;28;20375;-71
2023/09/29 05:28:28;;;;;;;;;;;17.70;99.90;;;;;;5019366;28;19909;-73
2023/09/29 05:30:54;;;;;;;;;;;18.10;99.90;;;;;;4998237;28;19972;-72
2023/09/29 05:33:23;;;;;;;;;;;18.30;99.90;;;;;;5017132;28;19921;-72
2023/09/29 05:35:49;;;;;;;;;;;18.70;99.90;;;;;;5014563;28;20180;-72
2023/09/29 05:38:15;;;;;;;;;;;19.30;99.90;;;;;;5000005;28;20273;-72
2023/09/29 05:40:40;;;;;;;;;;;19.10;99.90;;;;;;5015691;28;19909;-72
2023/09/29 05:43:09;;;;;;;;;;;19.50;99.90;;;;;;5015878;28;20621;-72
2023/09/29 05:45:38;;;;;;;;;;;20.10;99.90;;;;;;5015971;28;19920;-72
2023/09/29 05:48:04;;;;;;;;;;;20.60;99.90;;;;;;5008311;28;19921;-72
2023/09/29 05:50:29;;;;;;;;;;;21.10;99.90;;;;;;5013218;28;19916;-72
2023/09/29 05:52:56;;;;;;;;;;;21.30;99.90;;;;;;5018133;28;19920;-72
2023/09/29 05:55:22;;;;;;;;;;;21.40;99.90;;;;;;5014510;28;21012;-72
2023/09/29 05:57:48;;;;;;;;;;;21.80;99.90;;;;;;5017949;28;20024;-72
2023/09/29 06:00:13;;;;;;;;;;;22.10;99.90;;;;;;5002004;28;20071;-72
2023/09/29 06:02:42;;;;;;;;;;;22.40;99.90;;;;;;5018604;28;19917;-72
2023/09/29 06:05:08;;;;;;;;;;;22.60;99.40;;;;;;5012952;28;19913;-72
2023/09/29 06:07:33;;;;;;;;;;;22.20;98.50;;;;;;5020251;28;19992;-72
2023/09/29 06:10:00;;;;;;;;;;;21.90;98.90;;;;;;5015611;28;20528;-72
2023/09/29 06:12:25;;;;;;;;;;;21.90;98.80;;;;;;5018968;28;20006;-72
2023/09/29 06:14:51;;;;;;;;;;;22.30;98.80;;;;;;5012562;28;19957;-72
2023/09/29 06:17:17;;;;;;;;;;;22.90;97.70;;;;;;5017840;28;19917;-72
2023/09/29 06:19:42;;;;;;;;;;;22.60;97.60;;;;;;5018113;28;19916;-72
2023/09/29 06:22:08;;;;;;;;;;;22.30;98.00;;;;;;5013223;28;19920;-72
2023/09/29 06:24:34;;;;;;;;;;;22.50;98.60;;;;;;5021883;28;19916;-72
2023/09/29 06:27:00;;;;;;;;;;;22.80;97.60;;;;;;5014823;28;20353;-73
2023/09/29 06:29:26;;;;;;;;;;;22.90;97.00;;;;;;5014925;28;19917;-72
2023/09/29 06:31:56;;;;;;;;;;;23.00;96.70;;;;;;5012504;28;19925;-72
2023/09/29 06:34:21;;;;;;;;;;;22.80;96.60;;;;;;5010003;28;19920;-72
2023/09/29 06:36:48;;;;;;;;;;;23.00;98.20;;;;;;5015942;28;19925;-67
2023/09/29 06:39:14;;;;;;;;;;;23.10;96.30;;;;;;5014051;28;19975;-69
2023/09/29 06:41:49;;;;;;;;;;;23.50;96.40;;;;;;5007834;28;20024;-69
2023/09/29 06:44:14;;;;;;;;;;;24.50;94.30;;;;;;5001598;28;19932;-71
2023/09/29 06:46:40;;;;;;;;;;;24.60;93.40;;;;;;5017134;28;19913;-72
2023/09/29 06:49:07;;;;;;;;;;;25.10;93.00;;;;;;5002380;28;19971;-72
2023/09/29 06:51:33;;;;;;;;;;;25.30;91.80;;;;;;5016457;28;19909;-70
2023/09/29 06:53:59;;;;;;;;;;;26.10;90.30;;;;;;5015032;28;19917;-72
2023/09/29 06:56:24;;;;;;;;;;;26.20;90.00;;;;;;5001795;28;19920;-71
2023/09/29 06:58:50;;;;;;;;;;;26.30;90.40;;;;;;5013096;28;19956;-71
2023/09/29 07:01:16;;;;;;;;;;;27.90;87.00;;;;;;5013961;28;19917;-71
2023/09/29 07:03:41;;;;;;;;;;;29.20;82.30;;;;;;5002416;28;19921;-72
2023/09/29 07:06:07;;;;;;;;;;;28.70;81.30;;;;;;5013201;28;19916;-72
2023/09/29 07:08:32;;;;;;;;;;;29.10;78.30;;;;;;4998887;28;19967;-73
2023/09/29 07:10:58;;;;;;;;;;;28.30;79.10;;;;;;5014193;28;19913;-71
2023/09/29 07:13:24;;;;;;;;;;;28.10;78.60;;;;;;5010278;28;20370;-72
2023/09/29 07:15:49;;;;;;;;;;;28.50;78.10;;;;;;5014408;28;19913;-72
2023/09/29 07:18:16;;;;;;;;;;;28.40;77.30;;;;;;5011240;28;19917;-72
2023/09/29 07:20:45;;;;;;;;;;;28.00;78.10;;;;;;5012972;28;20361;-71
2023/09/29 07:23:11;;;;;;;;;;;28.60;77.40;;;;;;5010034;28;20364;-72
2023/09/29 07:25:37;;;;;;;;;;;29.20;76.40;;;;;;5018793;28;20201;-72
2023/09/29 07:28:13;;;;;;;;;;;30.10;74.00;;;;;;4996131;28;19929;-72
2023/09/29 07:30:40;;;;;;;;;;;30.00;73.10;;;;;;5012166;28;19917;-72
2023/09/29 07:33:06;;;;;;;;;;;30.30;71.90;;;;;;4997157;28;19917;-72
2023/09/29 07:35:31;;;;;;;;;;;30.10;71.50;;;;;;4997325;28;20359;-71
2023/09/29 07:37:58;;;;;;;;;;;31.30;69.90;;;;;;5017673;28;20411;-71
2023/09/29 07:40:24;;;;;;;;;;;31.60;67.80;;;;;;5015205;28;19909;-72
2023/09/29 07:42:49;;;;;;;;;;;32.40;67.30;;;;;;5013180;28;19925;-70
2023/09/29 07:45:15;;;;;;;;;;;33.10;64.40;;;;;;5016736;28;19940;-70
2023/09/29 07:47:41;;;;;;;;;;;33.20;64.00;;;;;;5011219;28;19913;-70
2023/09/29 07:50:07;;;;;;;;;;;32.40;63.30;;;;;;5008507;28;19913;-69
2023/09/29 07:52:37;;;;;;;;;;;32.10;64.50;;;;;;5014037;28;19924;-69
2023/09/29 07:55:03;;;;;;;;;;;31.80;64.00;;;;;;4997153;28;19909;-69
2023/09/29 07:57:29;;;;;;;;;;;32.20;63.50;;;;;;5015332;28;19965;-69
2023/09/29 07:59:54;;;;;;;;;;;30.60;64.20;;;;;;5000393;28;20328;-69
2023/09/29 08:02:20;;;;;;;;;;;30.80;65.00;;;;;;5016008;28;19917;-70
2023/09/29 08:04:45;;;;;;;;;;;31.80;63.90;;;;;;5011126;28;19913;-69
2023/09/29 08:07:12;;;;;;;;;;;32.50;63.50;;;;;;5020506;28;20486;-69
2023/09/29 08:09:38;;;;;;;;;;;34.10;61.80;;;;;;4995440;28;19913;-70
2023/09/29 08:12:03;;;;;;;;;;;34.70;60.20;;;;;;5016507;28;20327;-69
2023/09/29 08:14:30;;;;;;;;;;;34.10;59.80;;;;;;5020817;28;20694;-69
2023/09/29 08:16:55;;;;;;;;;;;32.90;59.80;;;;;;4997307;28;19963;-68
2023/09/29 08:19:21;;;;;;;;;;;31.10;61.00;;;;;;5000954;28;19928;-69
2023/09/29 08:21:48;;;;;;;;;;;31.10;61.80;;;;;;5016683;28;19913;-69
2023/09/29 08:24:13;;;;;;;;;;;30.90;62.80;;;;;;5015609;28;20462;-69
2023/09/29 08:26:39;;;;;;;;;;;31.70;61.50;;;;;;5021437;28;19982;-69
2023/09/29 08:29:06;;;;;;;;;;;31.40;61.60;;;;;;5018802;28;19916;-81
2023/09/29 08:31:32;;;;;;;;;;;32.30;61.00;;;;;;5020474;28;19913;-79
2023/09/29 08:33:57;;;;;;;;;;;32.50;60.50;;;;;;5019071;28;19913;-79
2023/09/29 08:36:24;;;;;;;;;;;32.10;59.70;;;;;;5019964;28;19931;-80
2023/09/29 08:38:49;;;;;;;;;;;33.00;60.50;;;;;;5011569;28;20615;-79
2023/09/29 08:41:23;;;;;;;;;;;33.00;58.30;;;;;;5001220;28;20003;-80
2023/09/29 08:43:50;;;;;;;;;;;32.10;59.90;;;;;;5012402;28;19925;-80
2023/09/29 08:46:17;;;;;;;;;;;32.90;59.20;;;;;;5003982;28;19909;-80
2023/09/29 08:48:43;;;;;;;;;;;33.50;59.30;;;;;;5011226;28;19921;-79
2023/09/29 08:51:12;;;;;;;;;;;35.20;57.80;;;;;;5023886;28;20303;-80
2023/09/29 08:53:39;;;;;;;;;;;36.90;55.90;;;;;;5005571;28;19921;-80
2023/09/29 08:56:11;;;;;;;;;;;37.30;54.60;;;;;;5021433;28;20359;-78
2023/09/29 08:58:38;;;;;;;;;;;38.10;54.30;;;;;;5010096;28;20284;-79
2023/09/29 09:01:04;;;;;;;;;;;38.90;53.10;;;;;;5002023;28;20413;-79
2023/09/29 09:03:31;;;;;;;;;;;37.70;53.60;;;;;;5022369;28;19971;-81
2023/09/29 09:05:58;;;;;;;;;;;36.40;53.40;;;;;;5022883;28;19916;-80
2023/09/29 09:08:25;;;;;;;;;;;35.80;53.90;;;;;;5002571;28;19981;-81
2023/09/29 09:11:00;;;;;;;;;;;36.10;54.70;;;;;;5021650;28;20348;-80
2023/09/29 09:13:26;;;;;;;;;;;36.10;54.20;;;;;;4998935;28;20515;-81
2023/09/29 09:16:00;;;;;;;;;;;36.50;54.80;;;;;;5002689;28;19910;-81
2023/09/29 09:18:27;;;;;;;;;;;37.20;53.70;;;;;;5006819;28;20419;-81
2023/09/29 09:20:53;;;;;;;;;;;37.70;53.70;;;;;;5004060;28;19939;-81
2023/09/29 09:23:22;;;;;;;;;;;38.10;53.30;;;;;;5008141;28;19952;-80
2023/09/29 09:25:47;;;;;;;;;;;38.40;52.60;;;;;;5014025;28;19917;-80
2023/09/29 09:28:18;;;;;;;;;;;38.70;52.70;;;;;;5019661;28;20301;-82
2023/09/29 09:30:46;;;;;;;;;;;40.20;51.80;;;;;;5022081;28;19931;-81
2023/09/29 09:33:21;;;;;;;;;;;40.30;50.80;;;;;;5020817;28;20403;-81
2023/09/29 09:35:47;;;;;;;;;;;39.90;50.90;;;;;;5021966;28;20378;-81
2023/09/29 09:38:14;;;;;;;;;;;39.10;50.70;;;;;;5021425;28;19913;-79
2023/09/29 09:40:43;;;;;;;;;;;36.70;51.90;;;;;;5020750;28;19916;-81
2023/09/29 09:43:10;;;;;;;;;;;36.30;52.60;;;;;;5020093;28;19917;-81
2023/09/29 09:45:39;;;;;;;;;;;36.70;52.90;;;;;;5019553;28;20102;-81
2023/09/29 09:48:07;;;;;;;;;;;37.40;53.00;;;;;;4998625;28;19999;-80
2023/09/29 09:50:36;;;;;;;;;;;38.70;51.90;;;;;;5023153;28;19919;-81
2023/09/29 09:53:07;;;;;;;;;;;39.00;51.20;;;;;;5012385;28;20294;-81
2023/09/29 09:55:36;;;;;;;;;;;40.00;50.60;;;;;;5006024;28;20312;-82
2023/09/29 09:58:10;;;;;;;;;;;41.80;49.20;;;;;;5021956;28;19913;-81
2023/09/29 10:00:36;;;;;;;;;;;42.80;48.60;;;;;;5004637;28;20445;-81
2023/09/29 10:03:03;;;;;;;;;;;43.90;47.30;;;;;;5003959;28;19909;-80
2023/09/29 10:05:31;;;;;;;;;;;43.40;46.90;;;;;;5001167;28;20391;-81
2023/09/29 10:08:02;;;;;;;;;;;41.10;48.40;;;;;;5004158;28;20384;-80
2023/09/29 10:10:33;;;;;;;;;;;41.30;48.40;;;;;;5013140;28;19913;-81
2023/09/29 10:13:00;;;;;;;;;;;42.00;47.70;;;;;;5001976;28;19919;-81
2023/09/29 10:15:32;;;;;;;;;;;41.20;47.50;;;;;;5020454;28;20338;-81
2023/09/29 10:17:59;;;;;;;;;;;40.60;48.20;;;;;;5007175;28;19913;-80
2023/09/29 10:20:29;;;;;;;;;;;40.90;47.80;;;;;;5021813;28;19968;-81
2023/09/29 10:23:06;;;;;;;;;;;40.90;48.10;;;;;;5018917;28;20933;-80
2023/09/29 10:25:35;;;;;;;;;;;41.30;47.70;;;;;;5000391;28;19998;-82
2023/09/29 10:28:01;;;;;;;;;;;41.70;47.70;;;;;;5016172;28;19933;-81
2023/09/29 10:30:27;;;;;;;;;;;39.80;48.10;;;;;;5019927;28;20374;-82
2023/09/29 10:33:02;;;;;;;;;;;39.50;48.20;;;;;;5011888;28;19914;-81
2023/09/29 10:35:28;;;;;;;;;;;38.30;48.70;;;;;;5001401;28;19913;-81
2023/09/29 10:37:58;;;;;;;;;;;38.50;48.70;;;;;;5018132;28;20220;-80
2023/09/29 10:40:31;;;;;;;;;;;38.00;49.30;;;;;;5015769;28;20568;-80
2023/09/29 10:43:01;;;;;;;;;;;38.20;49.30;;;;;;4998149;28;19924;-81
2023/09/29 10:45:36;;;;;;;;;;;39.60;48.60;;;;;;5021439;28;19913;-81
2023/09/29 10:48:07;;;;;;;;;;;40.40;47.60;;;;;;5012299;28;20097;-80
2023/09/29 10:50:40;;;;;;;;;;;39.50;48.20;;;;;;5018492;28;19959;-84
2023/09/29 10:53:07;;;;;;;;;;;36.40;48.80;;;;;;5001831;28;19920;-81
2023/09/29 10:55:41;;;;;;;;;;;33.90;51.40;;;;;;5021558;28;19953;-80
2023/09/29 10:58:11;;;;;;;;;;;32.40;52.80;;;;;;5019900;28;20492;-84
2023/09/29 11:00:46;;;;;;;;;;;31.60;53.10;;;;;;4999973;28;19910;-79
2023/09/29 11:03:17;;;;;;;;;;;31.00;54.80;;;;;;5016336;28;19971;-82
2023/09/29 11:05:49;;;;;;;;;;;30.30;55.00;;;;;;5015353;28;19963;-86
2023/09/29 11:08:19;;;;;;;;;;;29.50;56.40;;;;;;5005725;28;19917;-84
2023/09/29 11:10:55;;;;;;;;;;;28.80;57.00;;;;;;5000733;28;19975;-78
2023/09/29 11:13:21;;;;;;;;;;;28.60;58.00;;;;;;4998770;28;20035;-78
2023/09/29 11:15:47;;;;;;;;;;;28.50;58.60;;;;;;5013263;28;20016;-77
2023/09/29 11:18:24;;;;;;;;;;;28.60;57.60;;;;;;4997483;28;21987;-77
2023/09/29 11:20:53;;;;;;;;;;;28.80;58.00;;;;;;4998510;28;19939;-77
2023/09/29 11:23:18;;;;;;;;;;;28.60;57.10;;;;;;5005186;28;19960;-76
2023/09/29 11:25:45;;;;;;;;;;;28.40;56.40;;;;;;5015513;28;20014;-76
2023/09/29 11:28:11;;;;;;;;;;;28.30;57.50;;;;;;5015929;28;19920;-76
2023/09/29 11:30:39;;;;;;;;;;;28.50;57.80;;;;;;5011808;28;19909;-75
2023/09/29 11:33:09;;;;;;;;;;;28.50;56.60;;;;;;5020621;28;20000;-76
2023/09/29 11:35:36;;;;;;;;;;;28.40;55.40;;;;;;4997162;28;19922;-75
2023/09/29 11:38:02;;;;;;;;;;;28.40;56.10;;;;;;4998088;28;19909;-77
2023/09/29 11:40:29;;;;;;;;;;;28.50;56.00;;;;;;4999905;28;20344;-77
2023/09/29 11:42:54;;;;;;;;;;;28.60;57.00;;;;;;5000373;28;19917;-74
2023/09/29 11:45:20;;;;;;;;;;;28.50;57.50;;;;;;5001376;28;20295;-75
2023/09/29 11:47:46;;;;;;;;;;;28.60;56.90;;;;;;4997218;28;19920;-76
2023/09/29 11:50:11;;;;;;;;;;;28.80;56.80;;;;;;5012712;28;19917;-76
2023/09/29 11:52:39;;;;;;;;;;;29.20;56.10;;;;;;5010490;28;19952;-74
2023/09/29 11:55:10;;;;;;;;;;;29.30;56.00;;;;;;5018254;28;19923;-73
2023/09/29 11:57:45;;;;;;;;;;;29.40;55.80;;;;;;5017430;28;19913;-73
2023/09/29 12:00:11;;;;;;;;;;;29.40;55.50;;;;;;4992939;28;19987;-72
2023/09/29 12:02:37;;;;;;;;;;;29.40;57.20;;;;;;5016322;28;20336;-72
2023/09/29 12:05:04;;;;;;;;;;;29.50;55.80;;;;;;5007567;28;20367;-73
2023/09/29 12:07:31;;;;;;;;;;;29.40;56.10;;;;;;5009494;28;19917;-72
2023/09/29 12:09:56;;;;;;;;;;;29.40;55.00;;;;;;4996483;28;19910;-72
2023/09/29 12:12:22;;;;;;;;;;;29.10;55.20;;;;;;5008813;28;19964;-67
2023/09/29 12:14:48;;;;;;;;;;;28.90;54.90;;;;;;5010846;28;20050;-67
2023/09/29 12:17:13;;;;;;;;;;;28.60;56.10;;;;;;5012176;28;19929;-66
2023/09/29 12:19:39;;;;;;;;;;;28.80;55.00;;;;;;4996783;28;19917;-67
2023/09/29 12:22:04;;;;;;;;;;;29.10;56.00;;;;;;5013157;28;20663;-68
2023/09/29 12:24:30;;;;;;;;;;;29.30;55.80;;;;;;5012652;28;20489;-68
2023/09/29 12:26:57;;;;;;;;;;;29.40;55.30;;;;;;5007508;28;20722;-68
2023/09/29 12:29:23;;;;;;;;;;;29.50;55.30;;;;;;5008096;28;19913;-68
2023/09/29 12:31:49;;;;;;;;;;;29.40;54.30;;;;;;5009582;28;19996;-69
2023/09/29 12:34:15;;;;;;;;;;;29.50;55.30;;;;;;5010588;28;19925;-70
2023/09/29 12:36:41;;;;;;;;;;;29.40;55.20;;;;;;5014027;28;21290;-69
2023/09/29 12:39:08;;;;;;;;;;;28.90;55.50;;;;;;5011612;28;19923;-69
2023/09/29 12:41:34;;;;;;;;;;;28.80;55.60;;;;;;5012289;28;20600;-70
2023/09/29 12:44:00;;;;;;;;;;;28.80;55.40;;;;;;5012923;28;20031;-70
2023/09/29 12:46:25;;;;;;;;;;;28.40;55.70;;;;;;4995484;28;19987;-69
2023/09/29 12:48:51;;;;;;;;;;;28.40;55.90;;;;;;4992106;28;20555;-70
2023/09/29 12:51:18;;;;;;;;;;;28.60;55.60;;;;;;5017267;28;19987;-69
2023/09/29 12:53:44;;;;;;;;;;;28.70;55.60;;;;;;5013744;28;19983;-70
2023/09/29 12:56:18;;;;;;;;;;;28.80;55.10;;;;;;5015481;28;20436;-69
2023/09/29 12:58:44;;;;;;;;;;;28.70;56.20;;;;;;5016506;28;19951;-70
2023/09/29 13:01:10;;;;;;;;;;;28.80;55.70;;;;;;5001223;28;20372;-68
2023/09/29 13:03:39;;;;;;;;;;;28.90;55.40;;;;;;5012671;28;19939;-70
2023/09/29 13:06:05;;;;;;;;;;;28.90;56.10;;;;;;5020109;28;19917;-70
2023/09/29 13:08:33;;;;;;;;;;;28.50;55.30;;;;;;4997353;28;19920;-70
2023/09/29 13:10:58;;;;;;;;;;;28.10;56.20;;;;;;5016369;28;20004;-69
2023/09/29 13:13:25;;;;;;;;;;;28.00;56.20;;;;;;5015940;28;20007;-70
2023/09/29 13:15:51;;;;;;;;;;;28.00;56.90;;;;;;5006858;28;20348;-70
2023/09/29 13:18:20;;;;;;;;;;;28.00;56.60;;;;;;5012641;28;20047;-71
2023/09/29 13:20:46;;;;;;;;;;;28.00;56.10;;;;;;5016156;28;19913;-63
2023/09/29 13:23:12;;;;;;;;;;;27.90;56.10;;;;;;5019084;28;19919;-62
2023/09/29 13:25:38;;;;;;;;;;;27.90;56.90;;;;;;5014713;28;19917;-64
2023/09/29 13:28:04;;;;;;;;;;;27.90;57.30;;;;;;5003029;28;19940;-63
2023/09/29 13:30:30;;;;;;;;;;;28.10;58.30;;;;;;5016105;28;19913;-70
2023/09/29 13:32:55;;;;;;;;;;;28.00;58.20;;;;;;5005743;28;20479;-62
2023/09/29 13:35:21;;;;;;;;;;;27.70;59.00;;;;;;5015424;28;19909;-62
2023/09/29 13:37:47;;;;;;;;;;;27.40;58.70;;;;;;5007493;28;20400;-62
2023/09/29 13:40:13;;;;;;;;;;;27.20;59.10;;;;;;5015119;28;19921;-63
2023/09/29 13:42:38;;;;;;;;;;;27.10;59.30;;;;;;5011338;28;20356;-63
2023/09/29 13:45:04;;;;;;;;;;;27.20;59.90;;;;;;5018935;28;19921;-62
2023/09/29 13:47:30;;;;;;;;;;;27.10;59.70;;;;;;5013103;28;20327;-67
2023/09/29 13:49:56;;;;;;;;;;;27.00;60.00;;;;;;5017339;28;20518;-73
2023/09/29 13:52:22;;;;;;;;;;;26.90;60.10;;;;;;4994570;28;19920;-71
2023/09/29 13:54:47;;;;;;;;;;;27.00;59.60;;;;;;5000308;28;19913;-69
2023/09/29 13:57:13;;;;;;;;;;;27.10;59.30;;;;;;5013548;28;20007;-65
2023/09/29 13:59:39;;;;;;;;;;;27.30;58.80;;;;;;5014496;28;19910;-67
2023/09/29 14:02:07;;;;;;;;;;;27.30;58.60;;;;;;5014073;28;19924;-72
2023/09/29 14:04:34;;;;;;;;;;;27.30;58.60;;;;;;5016694;28;19909;-68
2023/09/29 14:07:00;;;;;;;;;;;27.50;58.80;;;;;;5017065;28;20263;-64
2023/09/29 14:09:25;;;;;;;;;;;27.70;58.60;;;;;;5014831;28;19913;-65
2023/09/29 14:11:51;;;;;;;;;;;27.70;59.20;;;;;;5003409;28;19914;-63
2023/09/29 14:14:18;;;;;;;;;;;27.60;58.80;;;;;;5013803;28;19921;-63
2023/09/29 14:16:44;;;;;;;;;;;27.30;58.80;;;;;;5017193;28;19924;-65